Time;durP1;ratioP1;P1;durP2;ratioP2;P2;SDS_P1;SDS_P2;PMS_P1;PMS_P2;Temp;Humidity;BMP_temperature;BMP_pressure;BME280_temperature;BME280_humidity;BME280_pressure;Samples;Min_cycle;Max_cycle;Signal;HPM_P1;HPM_P2
2022/03/07 00:01:59;;;;;;;3.40;2.35;;;17.70;23.00;20.20;93952.00;;;;10410419;28;45571;-60
2022/03/07 00:07:00;;;;;;;4.95;2.80;;;17.70;22.90;20.10;93950.00;;;;10394516;28;45599;-61
2022/03/07 00:12:01;;;;;;;3.75;2.45;;;17.70;23.00;20.20;93934.00;;;;10392964;28;48411;-61
2022/03/07 00:17:01;;;;;;;4.05;2.72;;;17.70;22.90;20.10;93947.00;;;;10392808;28;47283;-62
2022/03/07 00:22:02;;;;;;;4.22;2.90;;;17.70;22.90;20.20;93948.00;;;;10394167;28;47241;-60
2022/03/07 00:27:04;;;;;;;3.53;2.65;;;17.70;22.90;20.10;93944.00;;;;10408656;28;47116;-61
2022/03/07 00:32:05;;;;;;;4.25;2.70;;;17.70;23.50;20.10;93949.00;;;;10394323;28;45276;-61
2022/03/07 00:37:06;;;;;;;2.83;2.40;;;17.70;23.00;20.10;93938.00;;;;10393004;28;45431;-61
2022/03/07 00:42:07;;;;;;;3.63;2.58;;;17.70;22.90;20.10;93953.00;;;;10392384;28;47855;-61
2022/03/07 00:47:08;;;;;;;3.95;2.70;;;17.70;22.80;20.10;93932.00;;;;10391383;28;47784;-60
2022/03/07 00:52:08;;;;;;;3.67;2.50;;;17.70;22.90;20.10;93945.00;;;;10409018;28;46554;-61
2022/03/07 00:57:09;;;;;;;4.03;2.80;;;17.70;23.00;20.10;93951.00;;;;10393527;28;45318;-60
2022/03/07 01:02:10;;;;;;;3.25;2.47;;;17.70;22.90;20.10;93945.00;;;;10400008;28;46691;-61
2022/03/07 01:07:11;;;;;;;3.60;2.55;;;17.70;22.90;20.10;93926.00;;;;10415275;28;45292;-60
2022/03/07 01:12:11;;;;;;;3.03;2.35;;;17.70;22.90;20.10;93948.00;;;;10415598;28;46448;-60
2022/03/07 01:17:12;;;;;;;3.45;2.38;;;17.70;22.90;20.10;93935.00;;;;10414823;28;45129;-60
2022/03/07 01:22:13;;;;;;;3.03;2.08;;;17.70;22.90;20.10;93935.00;;;;10399629;28;46087;-60
2022/03/07 01:27:13;;;;;;;2.97;2.10;;;17.60;22.80;20.10;93925.00;;;;10397720;28;47431;-60
2022/03/07 01:32:14;;;;;;;2.40;2.00;;;17.60;22.80;20.10;93923.00;;;;10399570;28;45266;-60
2022/03/07 01:37:15;;;;;;;3.90;2.40;;;17.70;22.80;20.10;93910.00;;;;10397199;28;48337;-61
2022/03/07 01:42:16;;;;;;;2.90;2.08;;;17.60;22.80;20.10;93908.00;;;;10413902;28;45328;-60
2022/03/07 01:47:17;;;;;;;3.55;2.08;;;17.60;22.80;20.10;93912.00;;;;10413508;28;45217;-61
2022/03/07 01:52:18;;;;;;;2.67;2.05;;;17.60;22.80;20.10;93897.00;;;;10413644;28;45225;-61
2022/03/07 01:57:19;;;;;;;2.65;2.03;;;17.60;22.80;20.10;93909.00;;;;10396796;28;47135;-61
2022/03/07 02:02:20;;;;;;;2.38;1.80;;;17.60;22.70;20.10;93896.00;;;;10390634;28;46989;-61
2022/03/07 02:07:23;;;;;;;3.33;2.10;;;17.60;22.80;20.10;93890.00;;;;10411008;28;46461;-61
2022/03/07 02:12:24;;;;;;;3.17;2.00;;;17.60;22.80;20.10;93891.00;;;;10395043;28;46832;-61
2022/03/07 02:17:25;;;;;;;2.63;1.90;;;17.60;22.80;20.10;93896.00;;;;10412304;28;46182;-60
2022/03/07 02:22:25;;;;;;;3.22;1.83;;;17.60;22.80;20.10;93891.00;;;;10412645;28;45406;-61
2022/03/07 02:27:26;;;;;;;5.20;1.92;;;17.70;22.80;20.10;93878.00;;;;10396255;28;45446;-62
2022/03/07 02:32:27;;;;;;;2.88;1.95;;;17.70;22.90;20.10;93877.00;;;;10396665;28;46552;-61
2022/03/07 02:37:28;;;;;;;2.70;1.65;;;17.60;22.80;20.10;93892.00;;;;10396286;28;45563;-61
2022/03/07 02:42:29;;;;;;;2.08;1.55;;;17.70;22.90;20.10;93877.00;;;;10412047;28;45148;-61
2022/03/07 02:47:29;;;;;;;2.75;1.90;;;17.60;22.80;20.10;93880.00;;;;10411205;28;45308;-61
2022/03/07 02:52:30;;;;;;;1.85;1.50;;;17.70;22.90;20.10;93871.00;;;;10396257;28;45304;-61
2022/03/07 02:57:31;;;;;;;2.80;1.73;;;17.60;22.90;20.10;93866.00;;;;10411171;28;45465;-60
2022/03/07 03:02:31;;;;;;;2.55;1.50;;;17.70;22.90;20.10;93854.00;;;;10395793;28;46541;-60
2022/03/07 03:07:32;;;;;;;2.33;1.67;;;17.70;22.90;20.10;93864.00;;;;10393729;28;47067;-61
2022/03/07 03:12:33;;;;;;;2.17;1.60;;;17.70;22.90;20.10;93870.00;;;;10395723;28;45393;-60
2022/03/07 03:17:34;;;;;;;2.13;1.70;;;17.70;22.80;20.10;93878.00;;;;10410114;28;45541;-60
2022/03/07 03:22:34;;;;;;;2.58;1.67;;;17.70;22.80;20.10;93877.00;;;;10410430;28;46327;-61
2022/03/07 03:27:36;;;;;;;1.88;1.42;;;17.60;22.80;20.10;93877.00;;;;10394700;28;45310;-61
2022/03/07 03:32:37;;;;;;;2.47;1.55;;;17.70;22.90;20.10;93883.00;;;;10395014;28;45576;-61
2022/03/07 03:37:38;;;;;;;1.88;1.40;;;17.70;22.80;20.10;93880.00;;;;10409612;28;46494;-60
2022/03/07 03:42:40;;;;;;;2.20;1.60;;;17.70;22.80;20.10;93877.00;;;;10410079;28;46261;-60
2022/03/07 03:47:42;;;;;;;2.47;1.38;;;17.60;22.60;20.10;93882.00;;;;10409507;28;45254;-61
2022/03/07 03:52:43;;;;;;;2.20;1.58;;;17.60;22.70;20.10;93884.00;;;;10394690;28;45509;-62
2022/03/07 03:57:45;;;;;;;2.28;1.40;;;17.60;22.70;20.10;93877.00;;;;10409401;28;45497;-62
2022/03/07 04:02:46;;;;;;;2.78;1.60;;;17.60;22.70;20.10;93881.00;;;;10393845;28;46126;-61
2022/03/07 04:07:47;;;;;;;3.42;1.70;;;17.60;22.70;20.10;93891.00;;;;10409170;28;45260;-60
2022/03/07 04:12:47;;;;;;;2.72;1.63;;;17.60;22.70;20.10;93880.00;;;;10409104;28;45275;-61
2022/03/07 04:17:49;;;;;;;2.15;1.50;;;17.60;22.70;20.10;93894.00;;;;10392086;28;48438;-62
2022/03/07 04:22:50;;;;;;;2.08;1.50;;;17.60;22.70;20.10;93893.00;;;;10392120;28;47030;-61
2022/03/07 04:27:50;;;;;;;2.10;1.50;;;17.60;22.70;20.10;93894.00;;;;10391709;28;47546;-61
2022/03/07 04:32:51;;;;;;;2.00;1.50;;;17.60;22.70;20.10;93898.00;;;;10409578;28;45323;-61
2022/03/07 04:37:52;;;;;;;1.80;1.50;;;17.60;22.60;20.10;93886.00;;;;10415436;28;45326;-60
2022/03/07 04:42:55;;;;;;;2.90;1.65;;;17.60;22.60;20.10;93888.00;;;;10398847;28;48421;-61
2022/03/07 04:47:56;;;;;;;2.25;1.50;;;17.60;22.60;20.10;93890.00;;;;10414638;28;45201;-60
2022/03/07 04:52:57;;;;;;;3.08;1.63;;;17.60;22.50;20.10;93902.00;;;;10415684;28;46299;-61
2022/03/07 04:57:57;;;;;;;1.88;1.38;;;17.60;22.70;20.10;93913.00;;;;10415049;28;45248;-60
2022/03/07 05:02:58;;;;;;;2.20;1.30;;;17.60;22.50;20.10;93902.00;;;;10415143;28;45567;-61
2022/03/07 05:07:59;;;;;;;1.70;1.30;;;17.60;22.50;20.10;93909.00;;;;10399081;28;45245;-60
2022/03/07 05:12:59;;;;;;;2.08;1.50;;;17.60;22.60;20.10;93911.00;;;;10415106;28;45535;-61
2022/03/07 05:18:00;;;;;;;2.35;1.60;;;17.60;22.60;20.10;93919.00;;;;10397539;28;46848;-61
2022/03/07 05:23:01;;;;;;;2.67;1.70;;;17.70;22.70;20.10;93909.00;;;;10414565;28;46147;-61
2022/03/07 05:28:02;;;;;;;2.20;1.50;;;17.70;22.70;20.10;93912.00;;;;10398610;28;46009;-60
2022/03/07 05:33:02;;;;;;;2.28;1.50;;;17.70;22.70;20.10;93899.00;;;;10397446;28;47282;-62
2022/03/07 05:38:04;;;;;;;2.10;1.50;;;17.70;22.60;20.10;93904.00;;;;10413558;28;45635;-60
2022/03/07 05:43:04;;;;;;;1.92;1.48;;;17.70;22.60;20.20;93911.00;;;;10397159;28;47644;-62
2022/03/07 05:48:05;;;;;;;1.67;1.50;;;17.70;22.60;20.20;93916.00;;;;10396339;28;48470;-61
2022/03/07 05:53:06;;;;;;;2.45;1.58;;;17.80;22.50;20.20;93913.00;;;;10413694;28;46476;-62
2022/03/07 05:58:06;;;;;;;1.98;1.45;;;17.70;22.50;20.10;93911.00;;;;10397390;28;45552;-60
2022/03/07 06:03:07;;;;;;;2.40;1.40;;;17.70;22.30;20.10;93922.00;;;;10413148;28;45302;-62
2022/03/07 06:08:08;;;;;;;2.17;1.55;;;17.70;22.30;20.10;93914.00;;;;10412666;28;45295;-61
2022/03/07 06:13:09;;;;;;;2.30;1.50;;;17.70;22.20;20.10;93901.00;;;;10397252;28;46447;-60
2022/03/07 06:18:11;;;;;;;2.17;1.50;;;17.70;22.20;20.10;93920.00;;;;10396883;28;45510;-60
2022/03/07 06:23:11;;;;;;;2.00;1.42;;;17.70;22.30;20.10;93909.00;;;;10406714;28;46288;-62
2022/03/07 06:28:12;;;;;;;2.65;1.67;;;17.70;22.30;20.10;93925.00;;;;10393296;28;48343;-60
2022/03/07 06:33:14;;;;;;;2.40;1.50;;;17.70;22.40;20.10;93923.00;;;;10412348;28;46492;-62
2022/03/07 06:38:15;;;;;;;3.05;1.48;;;17.70;22.50;20.10;93921.00;;;;10411200;28;45200;-61
2022/03/07 06:43:16;;;;;;;3.40;1.60;;;17.70;22.50;20.10;93933.00;;;;10411904;28;45208;-60
2022/03/07 06:48:17;;;;;;;1.75;1.40;;;17.70;22.40;20.20;93931.00;;;;10411747;28;45408;-61
2022/03/07 06:53:17;;;;;;;1.70;1.33;;;17.70;22.40;20.10;93944.00;;;;10411586;28;46165;-60
2022/03/07 06:58:18;;;;;;;3.05;1.50;;;17.70;22.50;20.10;93932.00;;;;10394571;28;45305;-61
2022/03/07 07:03:19;;;;;;;2.47;1.63;;;17.70;22.40;20.10;93945.00;;;;10411266;28;45505;-60
2022/03/07 07:08:20;;;;;;;1.77;1.40;;;17.70;22.20;20.10;93932.00;;;;10395128;28;46636;-61
2022/03/07 07:13:20;;;;;;;2.75;1.85;;;17.70;22.30;20.10;93966.00;;;;10394004;28;47072;-60
2022/03/07 07:18:25;;;;;;;2.08;1.63;;;17.70;22.30;20.10;93939.00;;;;10393488;28;47959;-60
2022/03/07 07:23:26;;;;;;;3.03;1.70;;;17.70;22.30;20.10;93960.00;;;;10410840;28;45299;-59
2022/03/07 07:28:26;;;;;;;1.70;1.58;;;17.70;22.30;20.10;93961.00;;;;10410320;28;45254;-62
2022/03/07 07:33:27;;;;;;;2.42;1.73;;;17.60;22.10;20.10;93964.00;;;;10393689;28;47265;-61
2022/03/07 07:38:28;;;;;;;1.77;1.50;;;17.70;22.10;20.10;93962.00;;;;10387702;22;46750;-60
2022/03/07 07:43:28;;;;;;;2.83;1.73;;;17.70;22.20;20.10;93972.00;;;;10352493;28;46312;-60
2022/03/07 07:48:29;;;;;;;2.83;1.70;;;17.70;22.30;20.10;93965.00;;;;10351853;28;46066;-66
2022/03/07 07:53:30;;;;;;;2.95;1.58;;;17.70;22.20;20.20;93971.00;;;;10354023;28;46438;-63
2022/03/07 07:58:31;;;;;;;1.58;1.30;;;17.70;22.50;20.20;93972.00;;;;10353391;28;46231;-62
2022/03/07 08:03:31;;;;;;;2.63;1.60;;;17.80;22.60;20.20;93991.00;;;;10368265;28;45547;-62
2022/03/07 08:08:32;;;;;;;1.70;1.52;;;17.80;22.60;20.20;93982.00;;;;10352828;28;47248;-62
2022/03/07 08:13:33;;;;;;;2.75;1.85;;;17.80;22.60;20.20;93973.00;;;;10358732;28;47412;-62
2022/03/07 08:18:34;;;;;;;2.60;1.65;;;17.80;22.30;20.20;93980.00;;;;10358130;28;47098;-62
2022/03/07 08:23:35;;;;;;;2.63;1.73;;;17.70;22.20;20.10;93978.00;;;;10359728;28;45409;-62
2022/03/07 08:28:35;;;;;;;2.88;1.80;;;17.70;22.10;20.10;94001.00;;;;10373414;28;45269;-62
2022/03/07 08:33:36;;;;;;;2.58;1.75;;;17.70;22.10;20.10;93993.00;;;;10375217;28;46085;-62
2022/03/07 08:38:37;;;;;;;2.35;1.90;;;17.70;22.10;20.10;94000.00;;;;10373883;28;45451;-62
2022/03/07 08:43:37;;;;;;;2.30;1.60;;;17.70;22.30;20.10;93999.00;;;;10374554;28;45428;-62
2022/03/07 08:48:38;;;;;;;2.42;1.70;;;17.70;22.30;20.20;94007.00;;;;10357112;28;47202;-63
2022/03/07 08:53:39;;;;;;;2.78;1.55;;;17.70;22.40;20.20;94014.00;;;;10357532;28;48417;-63
2022/03/07 08:58:39;;;;;;;3.10;1.90;;;17.70;22.40;20.20;93997.00;;;;10358536;28;46514;-62
2022/03/07 09:03:40;;;;;;;2.60;1.77;;;17.80;22.50;20.20;94031.00;;;;10358931;28;45269;-63
2022/03/07 09:08:41;;;;;;;2.22;1.50;;;17.70;23.00;20.20;94018.00;;;;10373537;28;46167;-62
2022/03/07 09:13:41;;;;;;;2.22;1.70;;;17.80;22.50;20.20;94024.00;;;;10373749;28;46715;-63
2022/03/07 09:18:42;;;;;;;3.20;1.85;;;17.80;22.40;20.20;94027.00;;;;10372859;28;45593;-62
2022/03/07 09:23:43;;;;;;;2.28;1.65;;;17.80;22.40;20.20;94027.00;;;;10358195;28;45383;-62
2022/03/07 09:28:44;;;;;;;1.67;1.48;;;17.80;22.50;20.20;94034.00;;;;10357528;28;45474;-63
2022/03/07 09:33:45;;;;;;;2.42;1.80;;;17.70;22.40;20.20;94020.00;;;;10373361;28;45452;-62
2022/03/07 09:38:46;;;;;;;3.30;1.90;;;17.80;22.40;20.20;94013.00;;;;10372204;28;45466;-62
2022/03/07 09:43:46;;;;;;;2.80;1.83;;;17.70;22.40;20.20;94032.00;;;;10372906;28;45235;-63
2022/03/07 09:48:47;;;;;;;3.63;2.00;;;17.70;22.50;20.10;94004.00;;;;10372496;28;46403;-62
2022/03/07 09:53:48;;;;;;;2.78;2.00;;;17.70;22.20;20.10;94010.00;;;;10355498;28;45170;-62
2022/03/07 09:58:49;;;;;;;3.00;2.17;;;17.70;22.20;20.20;94035.00;;;;10356906;28;45390;-62
2022/03/07 10:03:49;;;;;;;2.70;1.98;;;17.70;22.20;20.20;94040.00;;;;10355726;28;46990;-62
2022/03/07 10:09:01;;;;;;;3.78;2.30;;;17.70;22.30;20.20;94038.00;;;;10357263;28;45202;-62
2022/03/07 10:14:04;;;;;;;3.08;2.20;;;17.80;22.30;20.10;94036.00;;;;10356452;28;48121;-59
2022/03/07 10:19:12;;;;;;;2.60;1.75;;;17.70;22.20;20.20;94031.00;;;;10372111;28;46690;-62
2022/03/07 10:24:14;;;;;;;4.22;1.98;;;17.70;22.30;20.20;94046.00;;;;10355357;28;47949;-64
2022/03/07 10:29:14;;;;;;;3.50;1.98;;;17.70;22.20;20.20;94034.00;;;;10355517;28;45402;-59
2022/03/07 10:34:15;;;;;;;2.42;1.70;;;17.80;22.20;20.20;94037.00;;;;10371107;28;46486;-63
2022/03/07 10:39:25;;;;;;;3.33;1.92;;;17.80;22.30;20.20;94028.00;;;;10354184;28;47176;-60
2022/03/07 10:44:32;;;;;;;4.55;2.75;;;17.80;22.20;20.10;94045.00;;;;10371933;28;45264;-61
2022/03/07 10:49:33;;;;;;;4.57;2.72;;;17.70;21.20;20.10;94030.00;;;;10342622;28;47332;-58
2022/03/07 10:54:37;;;;;;;4.35;2.75;;;17.60;21.20;20.10;94029.00;;;;10354982;28;45213;-59
2022/03/07 10:59:38;;;;;;;3.92;2.53;;;17.60;21.20;20.10;94028.00;;;;10354039;28;47066;-59
2022/03/07 11:04:40;;;;;;;6.00;3.92;;;17.60;21.00;20.00;94033.00;;;;10350348;28;45486;-59
2022/03/07 11:09:42;;;;;;;28.70;11.07;;;17.60;21.10;20.00;94029.00;;;;10351586;28;45182;-59
2022/03/07 11:14:43;;;;;;;21.73;8.77;;;17.60;20.90;20.00;94037.00;;;;10351358;28;45607;-59
2022/03/07 11:19:46;;;;;;;17.60;7.18;;;17.60;20.70;19.90;94026.00;;;;10351165;28;45210;-59
2022/03/07 11:24:47;;;;;;;16.52;6.30;;;17.60;20.40;20.00;94013.00;;;;10354009;28;45201;-59
2022/03/07 11:29:49;;;;;;;13.50;5.35;;;17.60;21.10;20.10;94026.00;;;;10354753;28;45048;-61
2022/03/07 11:34:53;;;;;;;11.05;4.78;;;17.60;21.40;20.10;94021.00;;;;10353557;28;46979;-59
2022/03/07 11:39:58;;;;;;;9.73;4.20;;;17.70;21.50;20.20;94021.00;;;;10354320;28;46766;-59
2022/03/07 11:45:10;;;;;;;8.02;3.67;;;17.80;21.70;20.20;94013.00;;;;10354170;28;46204;-60
2022/03/07 11:50:11;;;;;;;7.03;3.30;;;17.80;21.80;20.20;94007.00;;;;10353154;28;45199;-60
2022/03/07 11:55:19;;;;;;;7.43;3.50;;;17.80;21.80;20.20;93997.00;;;;10353934;28;45232;-63
2022/03/07 12:00:32;;;;;;;5.10;2.88;;;17.80;21.90;20.20;93984.00;;;;10371125;28;45638;-59
2022/03/07 12:05:38;;;;;;;5.85;3.08;;;17.80;22.50;20.20;94000.00;;;;10368744;28;45261;-60
2022/03/07 12:11:02;;;;;;;6.13;2.75;;;17.90;22.10;20.30;94008.00;;;;10355014;28;45209;-60
2022/03/07 12:16:04;;;;;;;4.95;2.80;;;17.90;22.10;20.30;93989.00;;;;10330642;28;47110;-60
2022/03/07 12:21:04;;;;;;;4.88;2.92;;;17.90;22.20;20.30;93998.00;;;;10331196;28;46220;-60
2022/03/07 12:26:08;;;;;;;4.25;2.50;;;17.90;22.20;20.30;93990.00;;;;10310549;28;46449;-60
2022/03/07 12:31:10;;;;;;;5.20;2.50;;;17.90;22.30;20.30;93979.00;;;;10338693;28;46171;-59
2022/03/07 12:36:14;;;;;;;3.60;2.45;;;17.90;22.30;20.30;93990.00;;;;10319841;28;45959;-59
2022/03/07 12:41:18;;;;;;;4.45;2.60;;;17.90;22.30;20.30;93976.00;;;;10310952;28;47487;-59
2022/03/07 12:46:20;;;;;;;2.95;2.50;;;17.90;22.30;20.30;93964.00;;;;10364575;28;46434;-59
2022/03/07 12:51:22;;;;;;;4.95;2.30;;;17.90;22.30;20.30;93963.00;;;;10352411;28;46335;-60
2022/03/07 12:56:39;;;;;;;3.97;2.63;;;17.90;22.30;20.30;93968.00;;;;10372137;28;46173;-58
2022/03/07 13:01:50;;;;;;;8.02;2.83;;;17.90;22.30;20.30;93964.00;;;;10375236;28;45456;-60
2022/03/07 13:06:52;;;;;;;5.22;2.80;;;17.90;21.90;20.30;93952.00;;;;10358020;28;47861;-59
2022/03/07 13:11:54;;;;;;;4.90;2.40;;;17.90;22.00;20.30;93951.00;;;;10374743;28;45194;-60
2022/03/07 13:17:10;;;;;;;5.13;2.40;;;17.90;22.10;20.30;93963.00;;;;10373241;28;45423;-59
2022/03/07 13:22:11;;;;;;;3.83;2.30;;;17.90;22.10;20.40;93962.00;;;;10374311;28;45424;-61
2022/03/07 13:27:14;;;;;;;2.58;1.88;;;18.00;22.30;20.40;93951.00;;;;10372433;28;45207;-60
2022/03/07 13:32:18;;;;;;;3.15;2.15;;;18.00;22.30;20.40;93950.00;;;;10357781;28;46351;-58
2022/03/07 13:37:42;;;;;;;3.70;2.17;;;18.00;22.30;20.40;93951.00;;;;10371441;28;45318;-60
2022/03/07 13:42:47;;;;;;;3.90;2.42;;;18.00;22.40;20.40;93941.00;;;;10372178;28;45277;-60
2022/03/07 13:48:03;;;;;;;2.80;2.00;;;18.00;22.40;20.40;93938.00;;;;10371520;28;46993;-61
2022/03/07 13:53:15;;;;;;;3.35;2.05;;;18.00;22.40;20.40;93936.00;;;;10371183;28;46271;-60
2022/03/07 13:58:18;;;;;;;3.58;2.10;;;18.00;22.40;20.40;93941.00;;;;10371483;28;46179;-60
2022/03/07 14:03:19;;;;;;;2.92;2.10;;;18.00;22.50;20.40;93929.00;;;;10354329;28;46458;-61
2022/03/07 14:08:34;;;;;;;3.45;2.00;;;18.10;22.50;20.40;93943.00;;;;10369525;28;45281;-59
2022/03/07 14:13:40;;;;;;;3.30;2.30;;;18.00;22.50;20.40;93936.00;;;;10370874;28;47880;-60
2022/03/07 14:18:42;;;;;;;2.85;2.20;;;18.00;22.50;20.40;93949.00;;;;10369585;28;46263;-60
2022/03/07 14:23:43;;;;;;;3.17;2.10;;;18.00;22.50;20.40;93945.00;;;;10355279;28;46437;-60
2022/03/07 14:28:44;;;;;;;3.60;2.20;;;18.00;22.60;20.40;93940.00;;;;10353747;28;45382;-60
2022/03/07 14:33:45;;;;;;;3.30;2.17;;;18.00;22.50;20.40;93927.00;;;;10355519;28;45225;-61
2022/03/07 14:38:46;;;;;;;2.63;2.08;;;18.00;22.50;20.40;93930.00;;;;10353854;28;46461;-65
2022/03/07 14:43:46;;;;;;;2.58;1.90;;;18.00;22.70;20.40;93926.00;;;;10353993;28;47267;-61
2022/03/07 14:48:47;;;;;;;3.20;1.80;;;18.00;22.60;20.40;93930.00;;;;10355540;28;45226;-59
2022/03/07 14:53:48;;;;;;;3.53;2.10;;;18.00;22.70;20.40;93938.00;;;;10370932;28;45496;-60
2022/03/07 14:58:48;;;;;;;2.45;1.83;;;18.00;22.60;20.40;93939.00;;;;10353458;28;47248;-60
2022/03/07 15:03:49;;;;;;;2.78;1.80;;;18.00;22.60;20.40;93931.00;;;;10370228;28;45534;-61
2022/03/07 15:08:49;;;;;;;4.85;2.20;;;18.00;22.60;20.40;93931.00;;;;10369219;28;45374;-59
2022/03/07 15:13:50;;;;;;;3.03;2.08;;;18.00;22.50;20.40;93925.00;;;;10370072;28;46769;-60
2022/03/07 15:18:51;;;;;;;3.47;1.98;;;18.00;22.50;20.40;93931.00;;;;10368645;28;45371;-60
2022/03/07 15:23:52;;;;;;;3.17;2.15;;;18.00;22.50;20.40;93939.00;;;;10369466;28;48428;-60
2022/03/07 15:28:52;;;;;;;2.50;1.80;;;18.00;22.50;20.40;93916.00;;;;10369027;28;47180;-59
2022/03/07 15:33:54;;;;;;;3.65;2.30;;;18.00;22.50;20.50;93944.00;;;;10369600;28;46784;-60
2022/03/07 15:38:58;;;;;;;2.03;1.70;;;18.10;22.50;20.50;93945.00;;;;10368408;28;46426;-60
2022/03/07 15:43:59;;;;;;;2.70;2.15;;;18.10;22.50;20.50;93945.00;;;;10368940;28;45178;-60
2022/03/07 15:49:01;;;;;;;2.60;2.10;;;18.10;22.50;20.50;93949.00;;;;10351835;28;46997;-60
2022/03/07 15:54:04;;;;;;;2.55;1.88;;;18.10;22.50;20.50;93953.00;;;;10368791;28;47425;-60
2022/03/07 15:59:07;;;;;;;3.05;2.17;;;18.10;22.40;20.50;93949.00;;;;10368121;28;46262;-61
2022/03/07 16:04:12;;;;;;;3.38;2.03;;;18.10;22.40;20.50;93956.00;;;;10351850;28;45350;-60
2022/03/07 16:09:13;;;;;;;3.30;2.20;;;18.10;22.90;20.50;93953.00;;;;10367807;28;45643;-60
2022/03/07 16:14:13;;;;;;;3.08;2.08;;;18.10;22.30;20.50;93953.00;;;;10368234;28;45716;-60
2022/03/07 16:19:14;;;;;;;3.40;2.20;;;18.10;22.30;20.50;93957.00;;;;10367530;28;46277;-60
2022/03/07 16:24:16;;;;;;;3.22;2.47;;;18.10;22.30;20.50;93965.00;;;;10353263;28;45648;-60
2022/03/07 16:29:17;;;;;;;3.22;2.15;;;18.10;22.20;20.50;93960.00;;;;10368852;28;45365;-60
2022/03/07 16:34:21;;;;;;;3.38;2.10;;;18.10;22.20;20.50;93959.00;;;;10358642;28;47173;-61
2022/03/07 16:39:21;;;;;;;3.95;2.80;;;18.10;22.80;20.50;93974.00;;;;10373624;28;45183;-59
2022/03/07 16:44:22;;;;;;;4.60;2.97;;;18.00;21.70;20.40;93970.00;;;;10366021;28;45671;-60
2022/03/07 16:49:23;;;;;;;3.42;2.67;;;18.00;22.00;20.40;93968.00;;;;10355135;28;46453;-59
2022/03/07 16:54:24;;;;;;;4.22;2.80;;;18.00;22.00;20.40;93979.00;;;;10356502;28;45349;-60
2022/03/07 16:59:25;;;;;;;3.53;2.60;;;18.00;22.00;20.40;93979.00;;;;10371043;28;45386;-60
2022/03/07 17:04:26;;;;;;;3.53;2.40;;;18.00;22.10;20.40;93988.00;;;;10354841;28;46923;-59
2022/03/07 17:09:27;;;;;;;5.93;2.55;;;18.00;22.10;20.40;93982.00;;;;10349416;28;45351;-60
2022/03/07 17:14:27;;;;;;;4.03;2.30;;;18.00;22.10;20.40;93988.00;;;;10351461;28;45410;-60
2022/03/07 17:19:28;;;;;;;4.63;2.60;;;18.00;22.10;20.40;94002.00;;;;10355411;28;46014;-59
2022/03/07 17:24:29;;;;;;;3.17;2.20;;;18.00;22.10;20.40;94007.00;;;;10371251;28;45157;-60
2022/03/07 17:29:31;;;;;;;3.45;2.60;;;18.00;22.10;20.40;94003.00;;;;10348035;28;46010;-59
2022/03/07 17:34:32;;;;;;;2.83;2.40;;;18.00;22.10;20.40;94008.00;;;;10355399;28;45332;-60
2022/03/07 17:39:33;;;;;;;3.95;2.05;;;18.00;22.20;20.40;94005.00;;;;10370302;28;45661;-62
2022/03/07 17:44:34;;;;;;;3.55;2.20;;;18.00;22.20;20.40;94010.00;;;;10372152;28;45659;-60
2022/03/07 17:49:35;;;;;;;4.00;2.70;;;18.00;22.20;20.40;93994.00;;;;10371882;28;46394;-60
2022/03/07 17:54:36;;;;;;;3.28;2.20;;;18.00;22.20;20.40;94001.00;;;;10372290;28;45351;-60
2022/03/07 17:59:37;;;;;;;3.45;2.17;;;17.90;22.10;20.40;93996.00;;;;10372202;28;45528;-60
2022/03/07 18:04:37;;;;;;;2.67;2.08;;;18.00;22.20;20.40;93998.00;;;;10371991;28;46483;-59
2022/03/07 18:09:38;;;;;;;4.15;2.45;;;18.00;22.20;20.40;94015.00;;;;10371757;28;46523;-60
2022/03/07 18:14:39;;;;;;;3.08;2.38;;;17.90;22.30;20.40;94011.00;;;;10371916;28;46434;-60
2022/03/07 18:19:40;;;;;;;3.00;2.30;;;17.90;22.30;20.40;94016.00;;;;10371050;28;45339;-60
2022/03/07 18:24:41;;;;;;;4.15;2.33;;;17.90;22.20;20.40;94017.00;;;;10371180;28;45154;-60
2022/03/07 18:29:41;;;;;;;3.78;2.33;;;17.90;22.30;20.40;94025.00;;;;10370815;28;46146;-60
2022/03/07 18:34:43;;;;;;;4.55;2.33;;;17.90;22.30;20.40;94021.00;;;;10356064;28;45552;-59
2022/03/07 18:39:45;;;;;;;2.78;2.00;;;17.90;22.30;20.40;94025.00;;;;10353120;28;46989;-60
2022/03/07 18:44:46;;;;;;;3.03;2.35;;;17.90;22.30;20.40;94037.00;;;;10368905;28;45460;-60
2022/03/07 18:49:48;;;;;;;3.15;2.20;;;17.90;22.30;20.40;94033.00;;;;10349984;28;47003;-60
2022/03/07 18:54:49;;;;;;;3.33;2.33;;;17.90;22.40;20.40;94032.00;;;;10353636;28;45366;-60
2022/03/07 18:59:50;;;;;;;3.58;2.15;;;17.90;22.30;20.40;94043.00;;;;10351838;28;48202;-60
2022/03/07 19:04:51;;;;;;;3.30;2.40;;;17.90;22.30;20.40;94037.00;;;;10332266;28;46433;-60
2022/03/07 19:09:51;;;;;;;3.42;2.38;;;17.90;22.30;20.40;94033.00;;;;10348564;28;45658;-59
2022/03/07 19:14:52;;;;;;;3.35;2.20;;;17.90;22.40;20.40;94029.00;;;;10353559;28;45367;-59
2022/03/07 19:19:53;;;;;;;5.47;2.53;;;17.90;22.30;20.30;94038.00;;;;10353950;28;46417;-60
2022/03/07 19:24:54;;;;;;;3.78;2.72;;;17.90;22.40;20.30;94054.00;;;;10354263;28;45656;-59
2022/03/07 19:29:55;;;;;;;2.75;2.20;;;17.90;22.30;20.30;94044.00;;;;10369233;28;46700;-59
2022/03/07 19:34:55;;;;;;;3.40;2.30;;;17.90;22.30;20.30;94052.00;;;;10369083;28;46336;-60
2022/03/07 19:39:56;;;;;;;3.35;2.70;;;17.90;22.40;20.30;94070.00;;;;10369880;28;45221;-61
2022/03/07 19:44:57;;;;;;;3.35;2.10;;;17.90;22.30;20.30;94064.00;;;;10370107;28;45350;-60
2022/03/07 19:49:58;;;;;;;2.40;2.20;;;17.90;22.30;20.30;94074.00;;;;10354393;28;45182;-59
2022/03/07 19:54:59;;;;;;;4.38;2.50;;;17.90;22.30;20.40;94077.00;;;;10369635;28;46473;-62
2022/03/07 20:00:00;;;;;;;3.47;2.60;;;17.90;22.30;20.30;94073.00;;;;10354380;28;46098;-59
2022/03/07 20:05:01;;;;;;;2.75;2.22;;;17.90;22.30;20.30;94066.00;;;;10369357;28;45417;-59
2022/03/07 20:10:04;;;;;;;3.33;2.28;;;17.90;22.30;20.30;94080.00;;;;10368970;28;45348;-61
2022/03/07 20:15:09;;;;;;;2.92;2.15;;;17.90;22.40;20.30;94080.00;;;;10368854;28;46280;-59
2022/03/07 20:20:10;;;;;;;4.90;2.40;;;17.90;22.40;20.30;94082.00;;;;10368316;28;45152;-60
2022/03/07 20:25:14;;;;;;;3.42;2.67;;;17.90;22.40;20.30;94093.00;;;;10353448;28;45359;-58
2022/03/07 20:30:16;;;;;;;3.67;2.47;;;17.90;22.30;20.30;94092.00;;;;10352079;28;45582;-58
2022/03/07 20:35:17;;;;;;;3.50;2.47;;;17.90;22.30;20.30;94094.00;;;;10368128;28;45513;-60
2022/03/07 20:40:18;;;;;;;3.30;2.42;;;17.90;22.30;20.30;94093.00;;;;10353374;28;45376;-59
2022/03/07 20:45:19;;;;;;;3.53;2.60;;;17.90;22.30;20.30;94090.00;;;;10368736;28;46595;-62
2022/03/07 20:50:20;;;;;;;3.08;2.60;;;17.90;22.40;20.30;94078.00;;;;10352844;28;45105;-59
2022/03/07 20:55:20;;;;;;;3.50;2.60;;;17.90;22.30;20.30;94092.00;;;;10352943;28;46792;-61
2022/03/07 21:00:21;;;;;;;3.50;2.53;;;17.90;22.40;20.30;94094.00;;;;10368087;28;46516;-60
2022/03/07 21:05:22;;;;;;;3.10;2.53;;;17.90;22.30;20.30;94090.00;;;;10352236;28;45326;-60
2022/03/07 21:10:24;;;;;;;3.13;2.08;;;17.90;22.30;20.30;94098.00;;;;10367736;28;45151;-60
2022/03/07 21:15:24;;;;;;;3.58;2.45;;;17.90;22.30;20.30;94093.00;;;;10368658;28;45314;-62
2022/03/07 21:20:25;;;;;;;3.72;2.40;;;17.90;22.30;20.30;94092.00;;;;10374409;28;46312;-59
2022/03/07 21:25:31;;;;;;;3.05;2.30;;;17.90;22.40;20.30;94092.00;;;;10376422;28;47983;-61
2022/03/07 21:30:32;;;;;;;3.13;2.33;;;17.90;22.30;20.30;94093.00;;;;10359055;28;45232;-59
2022/03/07 21:35:33;;;;;;;4.82;2.65;;;17.90;22.40;20.30;94076.00;;;;10357742;28;45484;-60
2022/03/07 21:40:34;;;;;;;3.33;2.70;;;17.90;22.30;20.30;94083.00;;;;10372701;28;45597;-60
2022/03/07 21:45:35;;;;;;;3.22;2.65;;;17.90;22.30;20.30;94080.00;;;;10352875;28;45301;-60
2022/03/07 21:50:35;;;;;;;3.00;2.35;;;17.90;22.30;20.30;94093.00;;;;10372810;28;46317;-59
2022/03/07 21:55:36;;;;;;;4.38;2.75;;;17.90;22.90;20.30;94086.00;;;;10356329;28;47239;-59
2022/03/07 22:00:37;;;;;;;3.85;2.72;;;17.80;22.30;20.30;94077.00;;;;10357909;28;45456;-61
2022/03/07 22:05:37;;;;;;;3.58;2.50;;;17.80;22.30;20.30;94084.00;;;;10372814;28;45306;-59